createdAt,value
2023-02-18T00:00:59.836Z,35.70
2023-02-18T00:03:28.180Z,35.50
2023-02-18T00:05:56.399Z,35.40
2023-02-18T00:08:24.494Z,35.20
2023-02-18T00:10:53.265Z,35.10
2023-02-18T00:13:21.352Z,35.00
2023-02-18T00:15:50.818Z,35.40
2023-02-18T00:18:18.940Z,35.60
2023-02-18T00:20:47.004Z,35.70
2023-02-18T00:23:15.088Z,35.80
2023-02-18T00:25:43.194Z,36.30
2023-02-18T00:28:11.277Z,35.80
2023-02-18T00:30:42.302Z,35.70
2023-02-18T00:33:11.817Z,35.50
2023-02-18T00:35:39.900Z,35.50
2023-02-18T00:38:07.966Z,35.30
2023-02-18T00:40:39.143Z,35.10
2023-02-18T00:43:07.224Z,35.00
2023-02-18T00:45:35.270Z,35.30
2023-02-18T00:48:03.394Z,35.50
2023-02-18T00:50:32.899Z,35.70
2023-02-18T00:53:00.947Z,35.90
2023-02-18T00:55:29.119Z,36.30
2023-02-18T00:57:57.519Z,36.00
2023-02-18T01:00:26.415Z,35.80
2023-02-18T01:02:54.739Z,35.60
2023-02-18T01:05:22.845Z,35.40
2023-02-18T01:07:52.352Z,35.30
2023-02-18T01:10:20.545Z,35.10
2023-02-18T01:12:48.648Z,35.10
2023-02-18T01:15:17.432Z,35.10
2023-02-18T01:17:45.505Z,35.50
2023-02-18T01:20:14.304Z,35.60
2023-02-18T01:22:42.563Z,35.80
2023-02-18T01:25:12.392Z,36.10
2023-02-18T01:27:40.545Z,36.50
2023-02-18T01:30:09.894Z,36.80
2023-02-18T01:32:38.740Z,36.30
2023-02-18T01:35:07.597Z,36.10
2023-02-18T01:37:35.794Z,35.90
2023-02-18T01:40:04.260Z,35.70
2023-02-18T01:42:33.778Z,35.40
2023-02-18T01:45:34.887Z,35.30
2023-02-18T01:48:04.071Z,35.20
2023-02-18T01:50:32.271Z,35.10
2023-02-18T01:53:00.587Z,35.60
2023-02-18T01:55:28.743Z,35.70
2023-02-18T01:57:58.191Z,35.90
2023-02-18T02:00:26.371Z,36.10
2023-02-18T02:02:54.630Z,36.20
2023-02-18T02:05:25.599Z,35.90
2023-02-18T02:07:54.459Z,35.70
2023-02-18T02:10:22.650Z,35.50
2023-02-18T02:12:55.840Z,35.40
2023-02-18T02:15:46.290Z,35.30
2023-02-18T02:18:25.437Z,35.10
2023-02-18T02:21:24.670Z,35.00
2023-02-18T02:24:22.454Z,35.50
2023-02-18T02:27:08.025Z,35.80
2023-02-18T02:30:08.033Z,35.90
2023-02-18T02:33:09.472Z,36.30
2023-02-18T02:35:39.188Z,35.90
2023-02-18T02:38:08.758Z,35.70
2023-02-18T02:40:42.968Z,35.60
2023-02-18T02:43:13.810Z,35.50
2023-02-18T02:45:48.225Z,35.30
2023-02-18T02:48:19.677Z,35.10
2023-02-18T02:50:52.245Z,35.00
2023-02-18T02:53:22.678Z,35.40
2023-02-18T02:55:50.793Z,35.60
2023-02-18T02:58:19.571Z,35.80
2023-02-18T03:00:57.491Z,36.00
2023-02-18T03:04:01.077Z,36.30
2023-02-18T03:06:47.375Z,35.90
2023-02-18T03:09:17.927Z,35.80
2023-02-18T03:11:48.575Z,35.50
2023-02-18T03:14:20.345Z,35.40
2023-02-18T03:16:49.924Z,35.20
2023-02-18T03:19:21.901Z,35.10
2023-02-18T03:21:52.829Z,35.00
2023-02-18T03:24:23.777Z,35.40
2023-02-18T03:26:53.665Z,35.50
2023-02-18T03:29:21.739Z,35.70
2023-02-18T03:31:51.461Z,36.10
2023-02-18T03:34:21.359Z,36.40
2023-02-18T03:36:49.529Z,36.70
2023-02-18T03:39:19.794Z,36.50
2023-02-18T03:41:47.945Z,36.10
2023-02-18T03:44:16.050Z,35.90
2023-02-18T03:46:44.432Z,35.80
2023-02-18T03:49:13.003Z,35.60
2023-02-18T03:51:41.041Z,35.40
2023-02-18T03:54:09.158Z,35.30
2023-02-18T03:56:38.685Z,35.10
2023-02-18T03:59:06.831Z,35.50
2023-02-18T04:01:35.869Z,35.70
2023-02-18T04:04:04.221Z,36.50
2023-02-18T04:06:32.377Z,36.10
2023-02-18T04:09:00.963Z,36.40
2023-02-18T04:11:29.137Z,36.10
2023-02-18T04:14:01.636Z,35.90
2023-02-18T04:16:29.843Z,35.70
2023-02-18T04:18:57.922Z,35.50
2023-02-18T04:21:26.185Z,35.30
2023-02-18T04:23:54.359Z,35.30
2023-02-18T04:26:22.809Z,35.20
2023-02-18T04:28:50.870Z,35.20
2023-02-18T04:31:20.432Z,35.70
2023-02-18T04:33:48.591Z,35.70
2023-02-18T04:36:16.716Z,35.90
2023-02-18T04:38:44.888Z,36.20
2023-02-18T04:41:13.566Z,36.10
2023-02-18T04:43:41.673Z,35.90
2023-02-18T04:46:10.049Z,35.70
2023-02-18T04:48:39.730Z,35.50
2023-02-18T04:51:08.063Z,35.40
2023-02-18T04:53:36.170Z,35.30
2023-02-18T04:56:04.646Z,35.20
2023-02-18T04:58:32.728Z,35.00
2023-02-18T05:01:01.561Z,35.50
2023-02-18T05:03:29.786Z,35.70
2023-02-18T05:05:59.472Z,35.90
2023-02-18T05:08:27.530Z,36.10
2023-02-18T05:10:55.637Z,36.30
2023-02-18T05:13:23.884Z,35.90
2023-02-18T05:15:52.105Z,35.70
2023-02-18T05:18:20.184Z,35.60
2023-02-18T05:20:48.305Z,35.40
2023-02-18T05:23:20.225Z,35.30
2023-02-18T05:25:48.329Z,35.20
2023-02-18T05:28:16.448Z,35.00
2023-02-18T05:30:44.560Z,35.30
2023-02-18T05:33:12.607Z,35.50
2023-02-18T05:35:40.710Z,35.90
2023-02-18T05:38:09.926Z,35.90
2023-02-18T05:40:39.556Z,36.40
2023-02-18T05:43:07.611Z,36.70
2023-02-18T05:45:35.944Z,44.60
2023-02-18T05:48:04.126Z,44.80
2023-02-18T05:50:32.217Z,44.50
2023-02-18T05:53:00.284Z,44.50
2023-02-18T05:55:28.406Z,44.20
2023-02-18T05:57:57.930Z,40.40
2023-02-18T06:00:26.015Z,40.60
2023-02-18T06:02:54.110Z,40.40
2023-02-18T06:05:22.203Z,40.10
2023-02-18T06:07:50.429Z,41.30
2023-02-18T06:10:19.223Z,42.30
2023-02-18T06:12:47.346Z,42.90
2023-02-18T06:15:17.096Z,42.80
2023-02-18T06:17:45.231Z,43.00
2023-02-18T06:20:13.974Z,42.80
2023-02-18T06:22:42.186Z,42.40
2023-02-18T06:25:10.404Z,38.80
2023-02-18T06:27:38.537Z,35.70
2023-02-18T06:30:08.030Z,35.60
2023-02-18T06:32:37.513Z,35.80
2023-02-18T06:35:06.029Z,35.90
2023-02-18T06:37:34.143Z,43.40
2023-02-18T06:40:02.296Z,48.00
2023-02-18T06:42:30.462Z,50.30
2023-02-18T06:44:58.709Z,49.90
2023-02-18T06:47:26.713Z,49.00
2023-02-18T06:49:56.284Z,48.40
2023-02-18T06:52:24.409Z,48.40
2023-02-18T06:54:53.044Z,48.00
2023-02-18T06:57:21.294Z,47.70
2023-02-18T06:59:49.570Z,48.00
2023-02-18T07:02:17.941Z,48.70
2023-02-18T07:04:46.518Z,49.50
2023-02-18T07:07:16.655Z,52.90
2023-02-18T07:09:44.959Z,35.50
2023-02-18T07:12:13.127Z,35.80
2023-02-18T07:14:41.424Z,36.00
2023-02-18T07:17:09.582Z,36.40
2023-02-18T07:19:37.745Z,36.00
2023-02-18T07:22:06.027Z,35.80
2023-02-18T07:24:35.608Z,35.60
2023-02-18T07:27:03.733Z,35.50
2023-02-18T07:29:31.822Z,35.30
2023-02-18T07:32:00.101Z,35.20
2023-02-18T07:34:28.440Z,35.10
2023-02-18T07:37:02.578Z,35.00
2023-02-18T07:39:30.720Z,35.50
2023-02-18T07:42:00.213Z,35.70
2023-02-18T07:44:28.733Z,36.00
2023-02-18T07:46:56.887Z,36.10
2023-02-18T07:49:24.945Z,36.40
2023-02-18T07:51:53.013Z,37.40
2023-02-18T07:54:21.112Z,36.40
2023-02-18T07:56:49.241Z,36.10
2023-02-18T07:59:18.683Z,35.90
2023-02-18T08:01:46.804Z,35.70
2023-02-18T08:04:17.918Z,35.60
2023-02-18T08:06:47.333Z,35.50
2023-02-18T08:09:15.701Z,35.30
2023-02-18T08:11:43.768Z,35.10
2023-02-18T08:14:12.052Z,35.70
2023-02-18T08:16:41.571Z,35.90
2023-02-18T08:19:09.758Z,36.00
2023-02-18T08:21:37.823Z,36.30
2023-02-18T08:24:08.066Z,36.40
2023-02-18T08:26:36.276Z,36.00
2023-02-18T08:29:04.428Z,35.80
2023-02-18T08:31:32.817Z,35.60
2023-02-18T08:34:03.667Z,35.50
2023-02-18T08:36:31.831Z,35.30
2023-02-18T08:38:59.961Z,35.20
2023-02-18T08:41:28.023Z,35.10
2023-02-18T08:43:56.022Z,35.30
2023-02-18T08:46:25.264Z,35.70
2023-02-18T08:49:03.040Z,36.10
2023-02-18T08:51:31.631Z,36.30
2023-02-18T08:53:59.761Z,36.30
2023-02-18T08:56:27.859Z,35.80
2023-02-18T08:58:55.872Z,35.60
2023-02-18T09:01:24.034Z,35.50
2023-02-18T09:03:52.225Z,35.30
2023-02-18T09:06:21.718Z,35.90
2023-02-18T09:08:49.790Z,35.10
2023-02-18T09:11:17.983Z,35.00
2023-02-18T09:13:46.041Z,35.00
2023-02-18T09:16:15.157Z,35.50
2023-02-18T09:18:43.598Z,35.90
2023-02-18T09:21:13.783Z,36.00
2023-02-18T09:23:43.272Z,36.40
2023-02-18T09:26:14.369Z,35.90
2023-02-18T09:28:42.833Z,35.70
2023-02-18T09:31:12.435Z,35.50
2023-02-18T09:33:43.301Z,35.40
2023-02-18T09:36:12.896Z,35.30
2023-02-18T09:38:41.010Z,35.10
2023-02-18T09:41:11.995Z,35.00
2023-02-18T09:43:43.771Z,34.90
2023-02-18T09:46:16.576Z,35.50
2023-02-18T09:48:44.650Z,35.70
2023-02-18T09:51:12.811Z,35.80
2023-02-18T09:53:40.877Z,36.20
2023-02-18T09:56:11.551Z,36.50
2023-02-18T09:58:39.939Z,36.70
2023-02-18T10:01:12.037Z,36.40
2023-02-18T10:03:40.685Z,36.00
2023-02-18T10:06:09.669Z,35.80
2023-02-18T10:08:39.199Z,35.60
2023-02-18T10:11:13.730Z,35.50
2023-02-18T10:13:42.219Z,35.40
2023-02-18T10:16:11.623Z,35.30
2023-02-18T10:18:41.448Z,35.10
2023-02-18T10:21:11.109Z,35.50
2023-02-18T10:23:40.932Z,35.80
2023-02-18T10:26:13.903Z,36.00
2023-02-18T10:28:41.967Z,36.30
2023-02-18T10:31:11.819Z,36.30
2023-02-18T10:33:43.391Z,35.90
2023-02-18T10:36:19.285Z,35.70
2023-02-18T10:39:04.584Z,35.70
2023-02-18T10:41:35.898Z,35.50
2023-02-18T10:44:06.962Z,35.30
2023-02-18T10:46:38.357Z,35.20
2023-02-18T10:49:14.991Z,35.10
2023-02-18T10:51:46.376Z,35.40
2023-02-18T10:54:15.174Z,35.60
2023-02-18T10:56:48.624Z,36.10
2023-02-18T10:59:20.835Z,36.20
2023-02-18T11:01:58.733Z,36.30
2023-02-18T11:04:29.496Z,36.00
2023-02-18T11:06:57.588Z,35.70
2023-02-18T11:09:29.150Z,35.60
2023-02-18T11:12:09.207Z,35.40
2023-02-18T11:14:42.012Z,35.30
2023-02-18T11:17:31.260Z,35.10
2023-02-18T11:19:59.920Z,35.10
2023-02-18T11:22:30.686Z,35.40
2023-02-18T11:24:59.975Z,35.60
2023-02-18T11:27:32.822Z,35.80
2023-02-18T11:30:03.271Z,36.00
2023-02-18T11:32:31.469Z,36.30
2023-02-18T11:34:59.602Z,35.90
2023-02-18T11:37:27.647Z,35.70
2023-02-18T11:39:56.106Z,35.50
2023-02-18T11:42:26.263Z,35.50
2023-02-18T11:44:56.213Z,35.30
2023-02-18T11:47:26.518Z,35.20
2023-02-18T11:50:02.931Z,35.10
2023-02-18T11:52:37.151Z,35.30
2023-02-18T11:55:06.753Z,35.60
2023-02-18T11:57:36.803Z,35.70
2023-02-18T12:00:08.832Z,36.00
2023-02-18T12:02:38.389Z,36.30
2023-02-18T12:05:12.528Z,36.70
2023-02-18T12:07:44.043Z,36.80
2023-02-18T12:10:14.275Z,36.20
2023-02-18T12:12:46.122Z,36.00
2023-02-18T12:15:18.870Z,35.80
2023-02-18T12:17:54.087Z,35.60
2023-02-18T12:20:56.351Z,35.50
2023-02-18T12:23:27.095Z,35.30
2023-02-18T12:26:01.484Z,35.20
2023-02-18T12:28:37.632Z,35.60
2023-02-18T12:31:27.168Z,35.80
2023-02-18T12:34:10.504Z,35.80
2023-02-18T12:37:06.094Z,36.30
2023-02-18T12:39:55.902Z,36.30
2023-02-18T12:42:44.226Z,35.90
2023-02-18T12:45:41.396Z,35.70
2023-02-18T12:48:53.341Z,35.60
2023-02-18T12:51:37.542Z,35.40
2023-02-18T12:54:35.506Z,35.30
2023-02-18T12:57:36.506Z,35.10
2023-02-18T13:00:32.133Z,35.50
2023-02-18T13:03:47.230Z,35.70
2023-02-18T13:06:30.149Z,35.80
2023-02-18T13:09:19.531Z,36.40
2023-02-18T13:12:02.719Z,35.90
2023-02-18T13:14:43.283Z,35.70
2023-02-18T13:17:19.955Z,35.60
2023-02-18T13:19:54.208Z,35.40
2023-02-18T13:22:44.576Z,35.30
2023-02-18T13:25:49.483Z,35.10
2023-02-18T13:28:32.320Z,35.10
2023-02-18T13:31:19.480Z,35.60
2023-02-18T13:34:19.171Z,35.60
2023-02-18T13:37:10.168Z,35.80
2023-02-18T13:39:41.215Z,36.30
2023-02-18T13:42:27.314Z,35.90
2023-02-18T13:45:35.545Z,35.70
2023-02-18T13:48:13.338Z,35.60
2023-02-18T13:50:47.603Z,35.40
2023-02-18T13:53:28.321Z,35.20
2023-02-18T13:56:11.704Z,35.10
2023-02-18T13:58:45.450Z,35.00
2023-02-18T14:01:16.584Z,35.40
2023-02-18T14:03:56.109Z,35.60
2023-02-18T14:06:25.073Z,35.90
2023-02-18T14:08:53.175Z,36.00
2023-02-18T14:11:41.654Z,36.30
2023-02-18T14:14:43.978Z,36.80
2023-02-18T14:17:33.812Z,36.40
2023-02-18T14:20:31.290Z,36.00
2023-02-18T14:22:59.400Z,35.80
2023-02-18T14:25:37.646Z,35.70
2023-02-18T14:28:39.702Z,35.50
2023-02-18T14:31:35.675Z,35.50
2023-02-18T14:34:28.452Z,42.50
2023-02-18T14:37:01.297Z,46.50
2023-02-18T14:39:36.903Z,43.80
2023-02-18T14:42:06.161Z,42.40
2023-02-18T14:44:41.600Z,41.70
2023-02-18T14:47:22.122Z,41.10
2023-02-18T14:49:50.940Z,40.80
2023-02-18T14:52:24.478Z,40.20
2023-02-18T14:54:52.562Z,39.80
2023-02-18T14:57:21.829Z,39.40
2023-02-18T14:59:50.003Z,39.60
2023-02-18T15:02:21.562Z,39.30
2023-02-18T15:04:50.642Z,39.50
2023-02-18T15:07:20.100Z,39.50
2023-02-18T15:09:48.732Z,39.70
2023-02-18T15:12:18.602Z,39.20
2023-02-18T15:14:46.684Z,38.90
2023-02-18T15:17:15.551Z,38.70
2023-02-18T15:19:46.108Z,38.40
2023-02-18T15:22:18.412Z,38.10
2023-02-18T15:24:46.474Z,38.00
2023-02-18T15:27:16.040Z,37.70
2023-02-18T15:29:44.186Z,37.70
2023-02-18T15:32:17.480Z,38.00
2023-02-18T15:34:47.103Z,38.00
2023-02-18T15:37:15.345Z,38.20
2023-02-18T15:39:43.723Z,38.70
2023-02-18T15:42:17.758Z,38.30
2023-02-18T15:44:48.037Z,38.10
2023-02-18T15:47:17.558Z,37.90
2023-02-18T15:49:49.010Z,37.70
2023-02-18T15:52:17.024Z,37.40
2023-02-18T15:54:45.436Z,37.30
2023-02-18T15:57:15.366Z,37.10
2023-02-18T15:59:47.909Z,36.90
2023-02-18T16:02:18.800Z,37.30
2023-02-18T16:04:52.223Z,37.50
2023-02-18T16:07:25.526Z,37.70
2023-02-18T16:10:07.481Z,37.90
2023-02-18T16:12:35.504Z,38.00
2023-02-18T16:15:03.585Z,37.70
2023-02-18T16:17:31.582Z,37.50
2023-02-18T16:20:05.274Z,37.30
2023-02-18T16:22:35.564Z,37.20
2023-02-18T16:25:15.188Z,36.90
2023-02-18T16:27:49.389Z,36.80
2023-02-18T16:30:18.716Z,36.60
2023-02-18T16:32:46.787Z,37.00
2023-02-18T16:35:16.332Z,37.20
2023-02-18T16:37:45.971Z,37.40
2023-02-18T16:40:31.865Z,37.60
2023-02-18T16:43:00.696Z,37.80
2023-02-18T16:45:36.091Z,38.20
2023-02-18T16:48:05.484Z,38.10
2023-02-18T16:50:34.939Z,37.80
2023-02-18T16:53:03.009Z,37.50
2023-02-18T16:55:31.435Z,37.30
2023-02-18T16:57:59.512Z,37.10
2023-02-18T17:00:30.342Z,37.00
2023-02-18T17:02:59.507Z,36.70
2023-02-18T17:05:28.990Z,36.60
2023-02-18T17:07:58.788Z,37.10
2023-02-18T17:10:26.865Z,37.20
2023-02-18T17:12:54.922Z,37.40
2023-02-18T17:15:29.205Z,37.60
2023-02-18T17:17:59.270Z,37.90
2023-02-18T17:20:27.485Z,37.50
2023-02-18T17:22:56.302Z,37.30
2023-02-18T17:25:27.523Z,37.10
2023-02-18T17:27:55.631Z,36.90
2023-02-18T17:30:23.717Z,36.80
2023-02-18T17:32:51.821Z,36.60
2023-02-18T17:35:20.821Z,36.50
2023-02-18T17:37:49.010Z,36.50
2023-02-18T17:40:17.579Z,36.80
2023-02-18T17:42:47.182Z,37.10
2023-02-18T17:45:19.265Z,37.40
2023-02-18T17:47:49.653Z,37.60
2023-02-18T17:50:18.422Z,37.40
2023-02-18T17:52:46.537Z,37.20
2023-02-18T17:55:21.142Z,37.00
2023-02-18T17:57:50.733Z,36.80
2023-02-18T18:00:20.144Z,36.60
2023-02-18T18:02:48.249Z,36.50
2023-02-18T18:05:20.954Z,36.40
2023-02-18T18:07:57.034Z,36.30
2023-02-18T18:10:31.673Z,36.70
2023-02-18T18:13:01.782Z,36.90
2023-02-18T18:15:30.780Z,37.10
2023-02-18T18:17:59.196Z,37.50
2023-02-18T18:20:32.818Z,37.40
2023-02-18T18:23:02.517Z,37.10
2023-02-18T18:25:31.764Z,36.90
2023-02-18T18:28:01.205Z,36.70
2023-02-18T18:30:32.602Z,36.60
2023-02-18T18:33:00.889Z,36.40
2023-02-18T18:35:30.020Z,36.30
2023-02-18T18:37:58.339Z,36.10
2023-02-18T18:40:32.216Z,36.60
2023-02-18T18:43:02.542Z,36.70
2023-02-18T18:45:32.016Z,36.70
2023-02-18T18:48:00.509Z,37.10
2023-02-18T18:50:31.037Z,37.40
2023-02-18T18:52:59.069Z,37.70
2023-02-18T18:55:29.712Z,37.80
2023-02-18T18:57:58.273Z,37.40
2023-02-18T19:00:31.821Z,37.20
2023-02-18T19:03:00.208Z,37.10
2023-02-18T19:05:29.776Z,36.80
2023-02-18T19:07:58.546Z,36.70
2023-02-18T19:10:27.561Z,36.40
2023-02-18T19:12:56.140Z,36.30
2023-02-18T19:15:24.761Z,36.60
2023-02-18T19:17:54.695Z,36.70
2023-02-18T19:20:25.880Z,37.00
2023-02-18T19:22:54.028Z,37.10
2023-02-18T19:25:22.230Z,37.50
2023-02-18T19:27:50.703Z,37.10
2023-02-18T19:30:19.737Z,37.00
2023-02-18T19:32:47.848Z,36.80
2023-02-18T19:35:17.361Z,36.60
2023-02-18T19:37:45.473Z,36.40
2023-02-18T19:40:14.511Z,36.30
2023-02-18T19:42:42.784Z,36.20
2023-02-18T19:45:11.262Z,36.10
2023-02-18T19:47:39.547Z,36.60
2023-02-18T19:50:07.946Z,36.60
2023-02-18T19:52:37.441Z,37.00
2023-02-18T19:55:06.060Z,37.30
2023-02-18T19:57:34.710Z,37.20
2023-02-18T20:00:02.887Z,37.00
2023-02-18T20:02:32.241Z,36.80
2023-02-18T20:05:01.622Z,36.60
2023-02-18T20:07:30.150Z,36.40
2023-02-18T20:09:59.663Z,36.30
2023-02-18T20:12:28.196Z,36.20
2023-02-18T20:14:56.254Z,36.00
2023-02-18T20:17:24.474Z,36.30
2023-02-18T20:19:52.603Z,36.50
2023-02-18T20:22:20.628Z,36.70
2023-02-18T20:24:48.782Z,37.10
2023-02-18T20:27:18.210Z,37.50
2023-02-18T20:29:46.244Z,36.90
2023-02-18T20:32:15.512Z,36.80
2023-02-18T20:34:45.144Z,36.60
2023-02-18T20:37:13.326Z,36.40
2023-02-18T20:39:41.375Z,36.40
2023-02-18T20:42:16.261Z,36.10
2023-02-18T20:44:46.504Z,36.10
2023-02-18T20:47:14.868Z,36.10
2023-02-18T20:49:42.886Z,37.10
2023-02-18T20:52:11.473Z,36.60
2023-02-18T20:54:40.208Z,36.90
2023-02-18T20:57:09.842Z,37.20
2023-02-18T20:59:38.069Z,37.50
2023-02-18T21:02:07.599Z,37.80
2023-02-18T21:04:35.829Z,37.40
2023-02-18T21:07:03.769Z,37.10
2023-02-18T21:09:31.679Z,36.90
2023-02-18T21:11:59.705Z,36.70
2023-02-18T21:14:27.773Z,36.50
2023-02-18T21:16:55.750Z,36.30
2023-02-18T21:19:25.246Z,36.20
2023-02-18T21:21:53.216Z,36.10
2023-02-18T21:24:21.285Z,36.50
2023-02-18T21:26:49.364Z,36.70
2023-02-18T21:29:17.462Z,37.00
2023-02-18T21:31:45.546Z,37.10
2023-02-18T21:34:14.230Z,37.30
2023-02-18T21:36:43.755Z,36.90
2023-02-18T21:39:11.817Z,36.70
2023-02-18T21:41:41.151Z,36.60
2023-02-18T21:44:09.582Z,36.40
2023-02-18T21:46:37.640Z,36.30
2023-02-18T21:49:10.496Z,36.10
2023-02-18T21:51:59.539Z,36.00
2023-02-18T21:54:30.224Z,36.30
2023-02-18T21:56:58.813Z,36.50
2023-02-18T21:59:29.210Z,36.70
2023-02-18T22:01:57.348Z,37.00
2023-02-18T22:04:25.499Z,37.30
2023-02-18T22:06:53.747Z,36.90
2023-02-18T22:09:21.672Z,36.70
2023-02-18T22:11:51.149Z,36.50
2023-02-18T22:14:19.263Z,36.40
2023-02-18T22:16:47.346Z,36.20
2023-02-18T22:19:15.407Z,36.60
2023-02-18T22:21:43.786Z,35.90
2023-02-18T22:24:13.313Z,36.00
2023-02-18T22:26:41.300Z,36.40
2023-02-18T22:29:11.045Z,36.40
2023-02-18T22:31:40.033Z,36.70
2023-02-18T22:34:08.092Z,37.20
2023-02-18T22:36:36.259Z,36.80
2023-02-18T22:39:04.695Z,36.70
2023-02-18T22:41:33.168Z,36.50
2023-02-18T22:44:02.570Z,36.30
2023-02-18T22:46:32.668Z,36.20
2023-02-18T22:49:00.717Z,36.10
2023-02-18T22:51:29.549Z,35.80
2023-02-18T22:53:58.126Z,35.80
2023-02-18T22:56:26.945Z,36.30
2023-02-18T22:58:55.509Z,36.30
2023-02-18T23:01:24.771Z,36.70
2023-02-18T23:03:54.273Z,37.10
2023-02-18T23:06:22.429Z,37.20
2023-02-18T23:08:50.411Z,37.50
2023-02-18T23:11:19.235Z,37.40
2023-02-18T23:14:07.301Z,37.10
2023-02-18T23:16:55.539Z,36.80
2023-02-18T23:19:25.402Z,36.60
2023-02-18T23:21:53.416Z,36.40
2023-02-18T23:24:21.628Z,36.30
2023-02-18T23:26:49.976Z,36.10
2023-02-18T23:29:18.367Z,36.00
2023-02-18T23:31:46.517Z,36.30
2023-02-18T23:34:15.973Z,36.50
2023-02-18T23:36:47.271Z,36.80
2023-02-18T23:39:17.799Z,37.10
2023-02-18T23:41:46.002Z,37.20
2023-02-18T23:44:18.496Z,36.70
2023-02-18T23:46:46.559Z,36.60
2023-02-18T23:49:16.167Z,36.40
2023-02-18T23:51:45.599Z,36.90
2023-02-18T23:54:13.636Z,36.20
2023-02-18T23:56:41.810Z,36.00
2023-02-18T23:59:11.250Z,35.90
